Dades meteomassalio
 
Diari Summary for Diciembre 12, 2017 Units:  Metric    English   Both
« Previous Day
Next Day »
Diari Semanal Mensual Anual Personalitzat
  Actual: Maxima: Minima: Mijana:
Temperatura: 5.0 °C 6.7 °C 5.0 °C 6 °C
Rosada: -0.2 °C 2.6 °C -0.2 °C 1.4 °C
Humitat: 69 % 75 % 69 % 72 %
Velocitat del vent: 18.5 km/h 30.6 km/h 11.1 km/h 19.1 km/h
Racha vent: 18.5 km/h 30.6 km/h - -
Vent:NW - - NW
Pressio: 1011.1 hPa 1011.1 hPa 1007.7 hPa -
Pluja: 0.0 mm      
Historical Graphs
 
 
Tabular Data for Diciembre 12, 2017
Time Temperature Dew Point Pressure Wind Wind Speed Wind Gust Humidity Rainfall Rate (Hourly) solar Conditions
00:07 6.7 °C 2.6 °C 1007.7 hPa NNW 19.3 km/h 19.3 km/h 75 % 0.0 mm 0.0 W/m2 CLR
00:12 6.1 °C 2.0 °C 1008.0 hPa NNW 30.6 km/h 30.6 km/h 75 % 0.0 mm 0.0 W/m2 CLR
00:27 6.1 °C 1.8 °C 1008.4 hPa NW 18.5 km/h 18.5 km/h 74 % 0.0 mm 0.0 W/m2 CLR
00:32 6.1 °C 1.8 °C 1008.4 hPa NW 20.4 km/h 20.4 km/h 74 % 0.0 mm 0.0 W/m2 CLR
00:37 6.1 °C 2.0 °C 1008.4 hPa NW 20.4 km/h 20.4 km/h 75 % 0.0 mm 0.0 W/m2 CLR
00:47 6.1 °C 1.8 °C 1008.7 hPa NW 18.5 km/h 18.5 km/h 74 % 0.0 mm 0.0 W/m2 CLR
00:52 6.1 °C 2.0 °C 1009.0 hPa NW 24.1 km/h 24.1 km/h 75 % 0.0 mm 0.0 W/m2 CLR
00:57 6.1 °C 1.8 °C 1009.0 hPa NNW 25.9 km/h 25.9 km/h 74 % 0.0 mm 0.0 W/m2 CLR
01:07 6.1 °C 2.0 °C 1009.0 hPa NW 24.1 km/h 24.1 km/h 75 % 0.0 mm 0.0 W/m2 CLR
01:13 6.1 °C 2.0 °C 1009.0 hPa NNW 18.5 km/h 18.5 km/h 75 % 0.0 mm 0.0 W/m2 CLR
01:28 6.1 °C 1.8 °C 1009.4 hPa NNW 24.1 km/h 24.1 km/h 74 % 0.0 mm 0.0 W/m2 CLR
01:43 6.1 °C 1.8 °C 1009.4 hPa NW 18.5 km/h 18.5 km/h 74 % 0.0 mm 0.0 W/m2 CLR
01:48 6.1 °C 1.8 °C 1009.4 hPa WNW 18.5 km/h 18.5 km/h 74 % 0.0 mm 0.0 W/m2 CLR
01:53 6.1 °C 1.6 °C 1009.7 hPa NNW 18.5 km/h 18.5 km/h 73 % 0.0 mm 0.0 W/m2 CLR
01:58 6.1 °C 1.6 °C 1009.7 hPa NNW 20.4 km/h 20.4 km/h 73 % 0.0 mm 0.0 W/m2 CLR
02:03 6.1 °C 1.6 °C 1009.7 hPa NNW 18.5 km/h 18.5 km/h 73 % 0.0 mm 0.0 W/m2 CLR
02:13 6.1 °C 1.4 °C 1010.0 hPa NW 18.5 km/h 18.5 km/h 72 % 0.0 mm 0.0 W/m2 CLR
02:18 6.1 °C 1.4 °C 1010.0 hPa NW 18.5 km/h 18.5 km/h 72 % 0.0 mm 0.0 W/m2 CLR
02:23 6.1 °C 1.2 °C 1010.0 hPa NNW 18.5 km/h 18.5 km/h 71 % 0.0 mm 0.0 W/m2 CLR
02:28 6.1 °C 1.2 °C 1010.0 hPa NW 16.7 km/h 16.7 km/h 71 % 0.0 mm 0.0 W/m2 CLR
02:33 6.1 °C 1.1 °C 1010.0 hPa NW 18.5 km/h 18.5 km/h 70 % 0.0 mm 0.0 W/m2 CLR
02:38 6.1 °C 1.1 °C 1010.4 hPa NNW 18.5 km/h 18.5 km/h 70 % 0.0 mm 0.0 W/m2 CLR
02:43 6.1 °C 1.1 °C 1010.4 hPa NW 13.0 km/h 13.0 km/h 70 % 0.0 mm 0.0 W/m2 CLR
02:48 5.6 °C 0.5 °C 1010.4 hPa West 11.1 km/h 11.1 km/h 70 % 0.0 mm 0.0 W/m2 CLR
02:53 5.6 °C 0.3 °C 1010.7 hPa WNW 16.7 km/h 16.7 km/h 69 % 0.0 mm 0.0 W/m2 CLR
02:58 5.6 °C 0.3 °C 1010.7 hPa WNW 16.7 km/h 16.7 km/h 69 % 0.0 mm 0.0 W/m2 CLR
03:03 5.6 °C 0.3 °C 1010.7 hPa NW 14.8 km/h 14.8 km/h 69 % 0.0 mm 0.0 W/m2 CLR
03:13 5.0 °C -0.2 °C 1010.7 hPa NW 14.5 km/h 14.5 km/h 69 % 0.0 mm 0.0 W/m2 CLR
03:18 5.0 °C -0.2 °C 1011.1 hPa NW 18.5 km/h 18.5 km/h 69 % 0.0 mm 0.0 W/m2 CLR
Lo Temps de Massalio
Compliments of Weather Underground - 512 kb